createdAt,value
2022-12-25T00:01:50.147Z,3.25
2022-12-25T00:04:20.889Z,3.72
2022-12-25T00:06:49.367Z,3.20
2022-12-25T00:09:17.327Z,3.25
2022-12-25T00:11:45.271Z,3.15
2022-12-25T00:14:15.642Z,3.20
2022-12-25T00:16:43.608Z,2.83
2022-12-25T00:19:12.965Z,3.13
2022-12-25T00:21:40.901Z,2.53
2022-12-25T00:24:09.016Z,3.03
2022-12-25T00:26:37.045Z,2.78
2022-12-25T00:29:06.550Z,2.63
2022-12-25T00:31:35.042Z,2.90
2022-12-25T00:34:03.240Z,2.83
2022-12-25T00:36:37.729Z,2.67
2022-12-25T00:39:11.201Z,2.38
2022-12-25T00:41:56.613Z,2.65
2022-12-25T00:44:25.185Z,3.08
2022-12-25T00:46:53.209Z,1.90
2022-12-25T00:49:22.759Z,2.67
2022-12-25T00:51:52.339Z,2.33
2022-12-25T00:54:20.903Z,2.65
2022-12-25T00:56:49.157Z,2.58
2022-12-25T00:59:17.106Z,3.15
2022-12-25T01:01:45.359Z,2.53
2022-12-25T01:04:13.762Z,2.42
2022-12-25T01:06:41.740Z,2.60
2022-12-25T01:09:28.438Z,3.08
2022-12-25T01:11:56.294Z,2.78
2022-12-25T01:14:24.207Z,2.80
2022-12-25T01:16:52.254Z,2.35
2022-12-25T01:19:20.178Z,2.85
2022-12-25T01:21:48.261Z,2.83
2022-12-25T01:24:17.655Z,2.30
2022-12-25T01:26:47.492Z,2.25
2022-12-25T01:29:15.550Z,2.72
2022-12-25T01:31:44.250Z,3.20
2022-12-25T01:34:12.340Z,3.40
2022-12-25T01:36:40.339Z,2.15
2022-12-25T01:39:10.198Z,2.65
2022-12-25T01:41:39.478Z,2.00
2022-12-25T01:44:09.870Z,2.80
2022-12-25T01:46:37.755Z,2.65
2022-12-25T01:49:09.138Z,2.30
2022-12-25T01:51:40.733Z,2.40
2022-12-25T01:54:12.128Z,1.73
2022-12-25T01:56:44.029Z,2.22
2022-12-25T01:59:13.644Z,2.75
2022-12-25T02:01:41.726Z,2.47
2022-12-25T02:04:17.605Z,1.65
2022-12-25T02:06:45.676Z,2.13
2022-12-25T02:09:14.160Z,2.35
2022-12-25T02:11:58.428Z,1.95
2022-12-25T02:14:28.451Z,2.40
2022-12-25T02:17:05.680Z,2.50
2022-12-25T02:19:53.486Z,2.55
2022-12-25T02:22:34.153Z,2.00
2022-12-25T02:25:17.398Z,2.20
2022-12-25T02:28:00.709Z,2.33
2022-12-25T02:30:33.330Z,2.33
2022-12-25T02:33:25.419Z,2.33
2022-12-25T02:35:55.849Z,2.00
2022-12-25T02:38:32.521Z,1.98
2022-12-25T02:41:05.507Z,2.70
2022-12-25T02:43:55.664Z,2.08
2022-12-25T02:46:43.692Z,2.15
2022-12-25T02:49:32.247Z,2.30
2022-12-25T02:52:22.292Z,2.83
2022-12-25T02:55:12.457Z,2.22
2022-12-25T02:58:02.584Z,2.50
2022-12-25T03:00:54.981Z,2.58
2022-12-25T03:03:52.238Z,2.88
2022-12-25T03:06:39.752Z,3.08
2022-12-25T03:09:28.488Z,1.75
2022-12-25T03:12:07.148Z,2.75
2022-12-25T03:14:53.085Z,1.88
2022-12-25T03:17:23.265Z,2.30
2022-12-25T03:20:09.238Z,2.20
2022-12-25T03:22:55.225Z,3.30
2022-12-25T03:25:55.201Z,2.65
2022-12-25T03:28:23.348Z,2.75
2022-12-25T03:31:14.388Z,2.70
2022-12-25T03:34:14.486Z,2.58
2022-12-25T03:36:54.001Z,2.80
2022-12-25T03:39:56.202Z,2.60
2022-12-25T03:42:49.088Z,2.73
2022-12-25T03:48:26.300Z,2.33
2022-12-25T03:51:20.018Z,2.60
2022-12-25T03:54:09.887Z,3.67
2022-12-25T03:56:57.404Z,2.80
2022-12-25T03:59:43.930Z,2.67
2022-12-25T04:02:29.756Z,2.85
2022-12-25T04:05:15.501Z,2.45
2022-12-25T04:08:02.506Z,2.92
2022-12-25T04:10:48.119Z,2.40
2022-12-25T04:13:33.869Z,2.92
2022-12-25T04:16:19.481Z,2.25
2022-12-25T04:19:05.171Z,2.65
2022-12-25T04:21:50.810Z,2.72
2022-12-25T04:24:37.433Z,2.95
2022-12-25T04:27:23.344Z,2.80
2022-12-25T04:30:08.710Z,3.10
2022-12-25T04:32:54.568Z,3.75
2022-12-25T04:35:39.914Z,4.22
2022-12-25T04:38:07.935Z,2.85
2022-12-25T04:40:37.494Z,3.67
2022-12-25T04:43:05.642Z,3.40
2022-12-25T04:45:33.804Z,2.65
2022-12-25T04:48:02.092Z,3.03
2022-12-25T04:50:30.322Z,3.08
2022-12-25T04:53:00.570Z,3.00
2022-12-25T04:55:28.658Z,3.15
2022-12-25T04:57:58.178Z,3.40
2022-12-25T05:00:28.425Z,3.45
2022-12-25T05:02:56.874Z,3.67
2022-12-25T05:05:31.882Z,3.08
2022-12-25T05:08:02.286Z,3.33
2022-12-25T05:10:30.335Z,3.38
2022-12-25T05:13:02.311Z,3.33
2022-12-25T05:15:37.837Z,3.92
2022-12-25T05:18:09.235Z,3.47
2022-12-25T05:20:40.227Z,3.35
2022-12-25T05:23:10.290Z,3.80
2022-12-25T05:25:40.927Z,3.20
2022-12-25T05:28:10.421Z,2.90
2022-12-25T05:30:38.540Z,3.30
2022-12-25T05:33:06.724Z,4.20
2022-12-25T05:35:37.350Z,3.63
2022-12-25T05:38:05.873Z,3.47
2022-12-25T05:40:34.043Z,3.20
2022-12-25T05:43:02.200Z,3.50
2022-12-25T05:45:32.632Z,3.58
2022-12-25T05:48:00.891Z,3.28
2022-12-25T05:50:29.085Z,3.88
2022-12-25T05:53:00.192Z,3.50
2022-12-25T05:55:31.078Z,3.30
2022-12-25T05:57:59.140Z,4.10
2022-12-25T06:00:27.473Z,3.97
2022-12-25T06:02:57.116Z,3.00
2022-12-25T06:05:25.415Z,3.08
2022-12-25T06:07:53.689Z,3.15
2022-12-25T06:10:22.134Z,3.00
2022-12-25T06:12:50.680Z,3.55
2022-12-25T06:15:19.012Z,2.60
2022-12-25T06:17:47.270Z,3.30
2022-12-25T06:20:16.814Z,3.20
2022-12-25T06:22:47.343Z,3.33
2022-12-25T06:25:15.586Z,3.08
2022-12-25T06:27:43.725Z,3.20
2022-12-25T06:30:12.303Z,2.38
2022-12-25T06:32:40.506Z,2.80
2022-12-25T06:35:09.116Z,2.83
2022-12-25T06:37:38.633Z,2.80
2022-12-25T06:40:08.119Z,2.50
2022-12-25T06:42:36.266Z,2.40
2022-12-25T06:45:04.528Z,3.10
2022-12-25T06:47:32.581Z,2.67
2022-12-25T06:50:00.660Z,2.38
2022-12-25T06:52:28.669Z,3.08
2022-12-25T06:54:58.092Z,2.88
2022-12-25T06:57:26.101Z,2.70
2022-12-25T06:59:56.101Z,2.90
2022-12-25T07:02:26.005Z,3.20
2022-12-25T07:04:54.354Z,2.95
2022-12-25T07:07:23.663Z,2.72
2022-12-25T07:09:51.774Z,2.50
2022-12-25T07:12:24.296Z,3.05
2022-12-25T07:17:24.067Z,2.63
2022-12-25T07:19:52.467Z,2.80
2022-12-25T07:22:20.403Z,2.53
2022-12-25T07:24:48.280Z,2.75
2022-12-25T07:27:16.121Z,3.15
2022-12-25T07:29:45.349Z,3.38
2022-12-25T07:32:13.258Z,2.63
2022-12-25T07:34:41.539Z,3.00
2022-12-25T07:37:09.480Z,3.22
2022-12-25T07:39:37.337Z,3.00
2022-12-25T07:42:05.711Z,2.78
2022-12-25T07:44:33.563Z,2.95
2022-12-25T07:47:02.769Z,2.72
2022-12-25T07:49:30.819Z,2.67
2022-12-25T07:51:58.820Z,2.70
2022-12-25T07:54:26.785Z,2.90
2022-12-25T07:56:55.058Z,3.10
2022-12-25T07:59:23.114Z,3.40
2022-12-25T08:01:51.596Z,3.65
2022-12-25T08:04:21.015Z,3.90
2022-12-25T08:06:48.948Z,4.88
2022-12-25T08:09:16.883Z,3.35
2022-12-25T08:11:47.511Z,3.42
2022-12-25T08:14:17.196Z,3.47
2022-12-25T08:16:46.673Z,3.55
2022-12-25T08:19:16.306Z,3.20
2022-12-25T08:21:45.633Z,3.35
2022-12-25T08:24:13.853Z,3.35
2022-12-25T08:26:42.044Z,3.70
2022-12-25T08:29:10.066Z,3.53
2022-12-25T08:31:45.943Z,3.72
2022-12-25T08:34:14.682Z,4.00
2022-12-25T08:36:42.626Z,3.83
2022-12-25T08:39:11.893Z,3.13
2022-12-25T08:41:42.710Z,4.15
2022-12-25T08:44:13.212Z,2.88
2022-12-25T08:46:41.236Z,3.20
2022-12-25T08:49:09.511Z,3.97
2022-12-25T08:51:37.574Z,3.60
2022-12-25T08:54:05.785Z,3.08
2022-12-25T08:56:36.463Z,3.40
2022-12-25T08:59:04.427Z,3.60
2022-12-25T09:01:32.383Z,2.75
2022-12-25T09:04:00.327Z,3.25
2022-12-25T09:06:29.840Z,3.08
2022-12-25T09:08:57.898Z,3.20
2022-12-25T09:11:26.194Z,3.80
2022-12-25T09:13:55.961Z,3.45
2022-12-25T09:16:24.556Z,2.83
2022-12-25T09:18:52.659Z,2.88
2022-12-25T09:21:20.872Z,3.17
2022-12-25T09:23:49.365Z,3.30
2022-12-25T09:26:24.995Z,3.50
2022-12-25T09:28:57.523Z,3.70
2022-12-25T09:31:31.524Z,3.20
2022-12-25T09:33:59.629Z,3.00
2022-12-25T09:36:28.615Z,2.67
2022-12-25T09:38:56.499Z,3.42
2022-12-25T09:41:30.864Z,2.65
2022-12-25T09:44:04.867Z,3.05
2022-12-25T09:46:40.567Z,2.75
2022-12-25T09:49:17.837Z,2.45
2022-12-25T09:51:49.782Z,2.40
2022-12-25T09:54:24.478Z,2.90
2022-12-25T09:56:52.379Z,2.95
2022-12-25T09:59:25.586Z,3.22
2022-12-25T10:02:04.602Z,2.75
2022-12-25T10:04:51.274Z,3.00
2022-12-25T10:07:25.788Z,2.35
2022-12-25T10:10:04.078Z,2.33
2022-12-25T10:12:41.230Z,2.15
2022-12-25T10:15:27.515Z,2.65
2022-12-25T10:18:09.532Z,2.28
2022-12-25T10:20:49.621Z,2.15
2022-12-25T10:23:21.175Z,1.92
2022-12-25T10:25:49.895Z,2.33
2022-12-25T10:28:25.707Z,2.60
2022-12-25T10:30:59.544Z,2.88
2022-12-25T10:33:28.495Z,2.33
2022-12-25T10:35:56.516Z,2.13
2022-12-25T10:38:24.495Z,2.33
2022-12-25T10:41:09.837Z,2.17
2022-12-25T10:43:43.590Z,1.83
2022-12-25T10:46:16.610Z,2.42
2022-12-25T10:48:48.514Z,2.30
2022-12-25T10:51:30.620Z,3.17
2022-12-25T10:53:58.785Z,2.30
2022-12-25T10:56:26.786Z,2.28
2022-12-25T10:59:06.000Z,2.88
2022-12-25T11:01:35.509Z,2.33
2022-12-25T11:04:03.799Z,2.40
2022-12-25T11:06:34.402Z,3.00
2022-12-25T11:09:06.530Z,2.35
2022-12-25T11:11:34.668Z,3.50
2022-12-25T11:14:03.455Z,3.20
2022-12-25T11:16:33.949Z,2.92
2022-12-25T11:19:03.518Z,2.63
2022-12-25T11:21:36.582Z,2.55
2022-12-25T11:24:06.960Z,2.80
2022-12-25T11:26:46.738Z,2.90
2022-12-25T11:29:23.720Z,3.15
2022-12-25T11:31:52.992Z,3.05
2022-12-25T11:34:30.708Z,2.80
2022-12-25T11:36:59.791Z,2.53
2022-12-25T11:39:30.235Z,2.85
2022-12-25T11:42:02.916Z,2.60
2022-12-25T11:44:41.196Z,2.78
2022-12-25T11:47:20.186Z,3.05
2022-12-25T11:50:00.263Z,3.00
2022-12-25T11:52:32.875Z,2.78
2022-12-25T11:55:11.969Z,2.35
2022-12-25T11:57:42.090Z,2.13
2022-12-25T12:00:15.995Z,2.20
2022-12-25T12:02:47.381Z,2.20
2022-12-25T12:05:22.204Z,2.20
2022-12-25T12:07:58.305Z,2.67
2022-12-25T12:10:34.068Z,2.47
2022-12-25T12:13:15.714Z,1.85
2022-12-25T12:15:46.626Z,2.08
2022-12-25T12:18:23.414Z,2.28
2022-12-25T12:21:05.872Z,2.00
2022-12-25T12:23:37.672Z,2.45
2022-12-25T12:26:06.005Z,2.70
2022-12-25T12:28:45.640Z,2.10
2022-12-25T12:31:14.340Z,2.40
2022-12-25T12:33:49.713Z,2.10
2022-12-25T12:36:34.457Z,1.40
2022-12-25T12:39:05.765Z,1.55
2022-12-25T12:41:46.217Z,1.40
2022-12-25T12:44:15.228Z,1.67
2022-12-25T12:46:53.263Z,1.65
2022-12-25T12:49:24.889Z,1.33
2022-12-25T12:52:06.193Z,1.10
2022-12-25T12:54:34.626Z,1.48
2022-12-25T12:57:04.600Z,1.30
2022-12-25T12:59:40.209Z,1.50
2022-12-25T13:02:30.365Z,1.42
2022-12-25T13:05:04.321Z,1.58
2022-12-25T13:07:44.061Z,1.55
2022-12-25T13:10:24.800Z,1.55
2022-12-25T13:12:55.947Z,1.52
2022-12-25T13:15:28.914Z,1.40
2022-12-25T13:17:59.231Z,1.42
2022-12-25T13:20:39.894Z,1.15
2022-12-25T13:23:26.553Z,1.48
2022-12-25T13:25:55.509Z,1.30
2022-12-25T13:28:28.466Z,1.40
2022-12-25T13:31:03.478Z,1.75
2022-12-25T13:33:31.498Z,1.52
2022-12-25T13:35:59.642Z,1.60
2022-12-25T13:41:47.298Z,1.40
2022-12-25T13:44:20.535Z,1.42
2022-12-25T13:46:48.706Z,1.25
2022-12-25T13:49:18.678Z,1.85
2022-12-25T13:51:47.326Z,1.55
2022-12-25T13:54:18.316Z,1.58
2022-12-25T13:56:52.404Z,2.10
2022-12-25T13:59:22.496Z,2.15
2022-12-25T14:01:51.801Z,2.05
2022-12-25T14:04:25.483Z,1.63
2022-12-25T14:06:56.273Z,1.35
2022-12-25T14:09:25.736Z,1.33
2022-12-25T14:11:54.568Z,1.33
2022-12-25T14:14:26.978Z,1.50
2022-12-25T14:19:28.188Z,1.25
2022-12-25T14:22:01.418Z,1.20
2022-12-25T14:24:33.815Z,1.42
2022-12-25T14:27:04.344Z,2.20
2022-12-25T14:29:38.278Z,1.55
2022-12-25T14:32:16.116Z,1.75
2022-12-25T14:34:46.114Z,1.77
2022-12-25T14:37:18.102Z,1.92
2022-12-25T14:39:57.372Z,2.35
2022-12-25T14:42:27.921Z,1.92
2022-12-25T14:45:07.745Z,2.55
2022-12-25T14:47:52.764Z,2.67
2022-12-25T14:50:27.305Z,1.85
2022-12-25T14:52:55.835Z,2.53
2022-12-25T14:55:29.151Z,2.40
2022-12-25T14:58:04.861Z,2.03
2022-12-25T15:00:41.597Z,2.10
2022-12-25T15:03:23.381Z,1.90
2022-12-25T15:06:02.342Z,2.40
2022-12-25T15:08:40.202Z,2.05
2022-12-25T15:11:10.218Z,2.33
2022-12-25T15:13:38.729Z,2.25
2022-12-25T15:16:14.236Z,3.10
2022-12-25T15:18:45.293Z,2.60
2022-12-25T15:21:17.479Z,3.30
2022-12-25T15:23:45.794Z,2.10
2022-12-25T15:26:16.155Z,2.58
2022-12-25T15:28:44.062Z,2.72
2022-12-25T15:31:20.702Z,2.47
2022-12-25T15:33:48.661Z,2.30
2022-12-25T15:36:16.771Z,2.78
2022-12-25T15:38:44.941Z,2.67
2022-12-25T15:41:37.673Z,2.90
2022-12-25T15:44:07.055Z,2.90
2022-12-25T15:46:35.575Z,2.63
2022-12-25T15:49:03.632Z,3.28
2022-12-25T15:51:31.716Z,3.17
2022-12-25T15:54:00.004Z,2.60
2022-12-25T15:56:30.083Z,2.55
2022-12-25T15:58:58.064Z,3.10
2022-12-25T16:01:26.080Z,2.60
2022-12-25T16:03:54.234Z,2.72
2022-12-25T16:06:22.220Z,2.45
2022-12-25T16:08:50.224Z,2.35
2022-12-25T16:11:18.135Z,3.00
2022-12-25T16:13:47.351Z,2.70
2022-12-25T16:16:15.367Z,2.75
2022-12-25T16:18:48.982Z,2.85
2022-12-25T16:21:19.802Z,2.58
2022-12-25T16:23:48.176Z,3.40
2022-12-25T16:26:16.203Z,2.95
2022-12-25T16:28:44.250Z,4.32
2022-12-25T16:31:13.554Z,2.65
2022-12-25T16:33:42.031Z,3.22
2022-12-25T16:36:10.871Z,3.78
2022-12-25T16:38:38.734Z,2.97
2022-12-25T16:41:06.857Z,3.40
2022-12-25T16:43:34.733Z,3.60
2022-12-25T16:46:09.476Z,2.92
2022-12-25T16:48:38.750Z,3.45
2022-12-25T16:51:10.133Z,3.10
2022-12-25T16:53:38.331Z,3.13
2022-12-25T16:56:07.594Z,2.70
2022-12-25T16:58:35.750Z,3.85
2022-12-25T17:01:08.458Z,3.17
2022-12-25T17:03:39.992Z,3.22
2022-12-25T17:06:15.327Z,3.57
2022-12-25T17:08:43.813Z,3.00
2022-12-25T17:11:12.233Z,3.33
2022-12-25T17:13:40.220Z,3.20
2022-12-25T17:16:19.469Z,2.85
2022-12-25T17:18:48.860Z,2.80
2022-12-25T17:21:18.423Z,4.03
2022-12-25T17:23:46.446Z,3.50
2022-12-25T17:26:14.333Z,3.55
2022-12-25T17:28:42.636Z,3.80
2022-12-25T17:31:13.247Z,3.67
2022-12-25T17:33:43.067Z,3.58
2022-12-25T17:36:15.548Z,3.70
2022-12-25T17:41:14.933Z,3.55
2022-12-25T17:43:45.369Z,3.78
2022-12-25T17:46:15.338Z,3.53
2022-12-25T17:48:44.081Z,3.63
2022-12-25T17:51:16.564Z,4.65
2022-12-25T17:56:13.713Z,4.32
2022-12-25T17:58:42.210Z,4.65
2022-12-25T18:01:12.782Z,3.53
2022-12-25T18:03:41.322Z,4.53
2022-12-25T18:06:12.347Z,4.30
2022-12-25T18:08:42.492Z,4.78
2022-12-25T18:11:15.202Z,4.07
2022-12-25T18:13:45.071Z,4.07
2022-12-25T18:16:13.837Z,4.45
2022-12-25T18:18:46.528Z,4.38
2022-12-25T18:21:19.981Z,4.78
2022-12-25T18:23:49.358Z,4.78
2022-12-25T18:26:20.338Z,5.43
2022-12-25T18:28:48.975Z,5.80
2022-12-25T18:31:19.328Z,4.55
2022-12-25T18:33:47.675Z,4.75
2022-12-25T18:36:17.600Z,5.50
2022-12-25T18:38:45.645Z,5.10
2022-12-25T18:41:15.305Z,5.07
2022-12-25T18:43:53.807Z,5.40
2022-12-25T18:46:24.242Z,4.85
2022-12-25T18:48:52.802Z,4.72
2022-12-25T18:51:22.633Z,4.63
2022-12-25T18:53:50.923Z,5.50
2022-12-25T18:56:20.280Z,4.65
2022-12-25T18:58:48.749Z,4.50
2022-12-25T19:01:19.246Z,5.70
2022-12-25T19:03:51.680Z,5.57
2022-12-25T19:06:21.043Z,5.82
2022-12-25T19:08:49.531Z,5.78
2022-12-25T19:11:18.626Z,5.28
2022-12-25T19:13:48.500Z,4.43
2022-12-25T19:16:16.654Z,5.63
2022-12-25T19:18:44.963Z,5.18
2022-12-25T19:21:12.917Z,4.45
2022-12-25T19:23:40.863Z,5.43
2022-12-25T19:26:09.807Z,4.50
2022-12-25T19:28:38.334Z,4.63
2022-12-25T19:31:09.774Z,4.43
2022-12-25T19:33:39.449Z,3.87
2022-12-25T19:36:09.645Z,4.38
2022-12-25T19:38:37.849Z,3.70
2022-12-25T19:41:07.330Z,3.45
2022-12-25T19:43:37.080Z,3.08
2022-12-25T19:46:08.687Z,4.00
2022-12-25T19:48:36.709Z,3.83
2022-12-25T19:51:04.846Z,3.83
2022-12-25T19:53:34.212Z,3.88
2022-12-25T19:56:03.401Z,3.78
2022-12-25T19:58:31.321Z,3.08
2022-12-25T20:01:00.610Z,4.30
2022-12-25T20:03:30.013Z,3.80
2022-12-25T20:05:58.130Z,3.40
2022-12-25T20:08:26.508Z,2.90
2022-12-25T20:10:54.627Z,2.47
2022-12-25T20:13:23.010Z,3.40
2022-12-25T20:15:53.006Z,3.25
2022-12-25T20:18:20.957Z,3.03
2022-12-25T20:20:50.261Z,2.97
2022-12-25T20:23:18.180Z,3.45
2022-12-25T20:25:46.088Z,3.28
2022-12-25T20:28:14.011Z,3.67
2022-12-25T20:30:41.892Z,3.53
2022-12-25T20:33:10.103Z,3.70
2022-12-25T20:35:38.569Z,3.38
2022-12-25T20:38:08.032Z,3.83
2022-12-25T20:41:00.172Z,3.95
2022-12-25T20:43:24.035Z,3.50
2022-12-25T20:45:52.751Z,4.00
2022-12-25T20:48:20.921Z,3.03
2022-12-25T20:50:48.881Z,4.05
2022-12-25T20:53:18.787Z,3.30
2022-12-25T20:55:48.938Z,3.05
2022-12-25T20:58:18.336Z,3.25
2022-12-25T21:00:46.478Z,3.47
2022-12-25T21:03:14.634Z,2.67
2022-12-25T21:05:49.845Z,3.80
2022-12-25T21:08:19.397Z,3.60
2022-12-25T21:10:50.520Z,3.22
2022-12-25T21:13:19.241Z,4.13
2022-12-25T21:15:48.681Z,3.42
2022-12-25T21:18:17.884Z,4.40
2022-12-25T21:20:48.751Z,3.85
2022-12-25T21:23:18.688Z,4.30
2022-12-25T21:25:50.759Z,4.47
2022-12-25T21:28:18.891Z,4.28
2022-12-25T21:30:48.226Z,4.65
2022-12-25T21:33:33.916Z,4.25
2022-12-25T21:36:07.239Z,4.70
2022-12-25T21:38:35.551Z,4.78
2022-12-25T21:41:05.703Z,4.25
2022-12-25T21:43:34.968Z,4.47
2022-12-25T21:46:04.319Z,5.18
2022-12-25T21:48:33.238Z,5.28
2022-12-25T21:51:20.532Z,4.57
2022-12-25T21:53:48.532Z,5.13
2022-12-25T21:56:17.957Z,4.32
2022-12-25T21:58:47.365Z,4.18
2022-12-25T22:01:18.868Z,4.43
2022-12-25T22:03:46.941Z,3.67
2022-12-25T22:06:32.689Z,5.28
2022-12-25T22:09:00.575Z,4.47
2022-12-25T22:11:47.744Z,4.20
2022-12-25T22:14:51.380Z,4.72
2022-12-25T22:17:40.678Z,4.55
2022-12-25T22:20:11.783Z,4.45
2022-12-25T22:22:39.770Z,4.38
2022-12-25T22:25:09.123Z,3.60
2022-12-25T22:27:39.747Z,3.95
2022-12-25T22:30:11.014Z,3.50
2022-12-25T22:32:38.970Z,3.08
2022-12-25T22:35:07.716Z,3.22
2022-12-25T22:37:37.568Z,3.25
2022-12-25T22:40:07.181Z,3.65
2022-12-25T22:42:35.075Z,3.28
2022-12-25T22:45:07.922Z,3.15
2022-12-25T22:47:39.030Z,2.72
2022-12-25T22:50:07.936Z,3.63
2022-12-25T22:52:35.858Z,3.78
2022-12-25T22:55:05.447Z,3.08
2022-12-25T22:57:33.281Z,3.13
2022-12-25T23:00:01.501Z,2.97
2022-12-25T23:02:31.003Z,3.72
2022-12-25T23:04:59.050Z,2.90
2022-12-25T23:07:27.078Z,3.40
2022-12-25T23:09:55.047Z,3.25
2022-12-25T23:12:43.082Z,2.67
2022-12-25T23:15:11.455Z,2.85
2022-12-25T23:17:58.362Z,3.35
2022-12-25T23:20:46.602Z,3.55
2022-12-25T23:23:34.616Z,3.03
2022-12-25T23:26:08.922Z,3.50
2022-12-25T23:28:54.884Z,3.03
2022-12-25T23:31:27.897Z,2.90
2022-12-25T23:33:57.638Z,2.97
2022-12-25T23:36:25.765Z,3.30
2022-12-25T23:38:53.784Z,3.15
2022-12-25T23:41:22.333Z,3.13
2022-12-25T23:43:53.069Z,3.13
2022-12-25T23:46:21.251Z,2.63
2022-12-25T23:48:49.285Z,2.38
2022-12-25T23:51:18.688Z,2.60
2022-12-25T23:53:46.606Z,3.30
2022-12-25T23:56:14.805Z,3.65
2022-12-25T23:58:45.125Z,2.80
